Time;durP1;ratioP1;P1;durP2;ratioP2;P2;SDS_P1;SDS_P2;PMS_P1;PMS_P2;Temp;Humidity;BMP_temperature;BMP_pressure;BME280_temperature;BME280_humidity;BME280_pressure;Samples;Min_cycle;Max_cycle;Signal;HPM_P1;HPM_P2
2022/08/07 00:01:18;;;;;;;17.75;8.43;;;;;;;;;;6177487;23;20004;-90
2022/08/07 00:03:45;;;;;;;13.50;7.38;;;;;;;;;;6179188;23;20009;-89
2022/08/07 00:06:11;;;;;;;12.10;6.85;;;;;;;;;;6179242;23;20437;-90
2022/08/07 00:08:37;;;;;;;12.80;7.22;;;;;;;;;;6178799;23;20034;-89
2022/08/07 00:11:06;;;;;;;14.45;6.68;;;;;;;;;;6202994;23;19997;-89
2022/08/07 00:13:32;;;;;;;15.27;6.90;;;;;;;;;;6178150;23;20062;-89
2022/08/07 00:15:59;;;;;;;14.98;6.97;;;;;;;;;;6179006;23;20502;-89
2022/08/07 00:18:26;;;;;;;13.65;7.63;;;;;;;;;;6178300;23;20398;-90
2022/08/07 00:20:57;;;;;;;11.98;7.43;;;;;;;;;;6179882;23;20009;-90
2022/08/07 00:23:23;;;;;;;11.07;6.95;;;;;;;;;;6179265;23;20364;-89
2022/08/07 00:25:49;;;;;;;12.48;6.93;;;;;;;;;;6181948;22;20008;-89
2022/08/07 00:28:15;;;;;;;10.25;6.30;;;;;;;;;;6178732;23;20103;-89
2022/08/07 00:30:41;;;;;;;14.00;7.55;;;;;;;;;;6178529;23;20524;-89
2022/08/07 00:33:07;;;;;;;11.25;6.57;;;;;;;;;;6178566;23;20008;-90
2022/08/07 00:35:33;;;;;;;14.20;6.53;;;;;;;;;;6180436;23;20039;-89
2022/08/07 00:38:00;;;;;;;11.32;6.30;;;;;;;;;;6179404;23;20456;-89
2022/08/07 00:40:27;;;;;;;11.98;6.82;;;;;;;;;;6179138;23;20817;-89
2022/08/07 00:42:53;;;;;;;18.60;6.57;;;;;;;;;;6181853;23;20017;-89
2022/08/07 00:45:20;;;;;;;13.02;6.53;;;;;;;;;;6208614;23;20001;-89
2022/08/07 00:47:46;;;;;;;15.20;7.35;;;;;;;;;;6181272;23;20765;-89
2022/08/07 00:50:12;;;;;;;13.88;7.63;;;;;;;;;;6182148;23;20084;-89
2022/08/07 00:52:39;;;;;;;14.18;7.97;;;;;;;;;;6181613;23;20344;-89
2022/08/07 00:55:05;;;;;;;20.45;8.70;;;;;;;;;;6181093;23;20487;-89
2022/08/07 00:57:31;;;;;;;20.38;9.15;;;;;;;;;;6210508;23;20042;-90
2022/08/07 00:59:57;;;;;;;16.98;9.32;;;;;;;;;;6185406;23;20036;-89
2022/08/07 01:02:24;;;;;;;19.45;8.65;;;;;;;;;;6185099;23;20005;-91
2022/08/07 01:04:50;;;;;;;14.30;7.70;;;;;;;;;;6185095;23;20004;-90
2022/08/07 01:07:17;;;;;;;15.63;8.25;;;;;;;;;;6184113;23;20508;-88
2022/08/07 01:09:43;;;;;;;15.13;7.72;;;;;;;;;;6183180;23;20389;-88
2022/08/07 01:12:10;;;;;;;17.98;8.18;;;;;;;;;;6184598;23;20023;-88
2022/08/07 01:14:36;;;;;;;15.13;7.88;;;;;;;;;;6183835;23;20322;-89
2022/08/07 01:17:02;;;;;;;21.38;8.43;;;;;;;;;;6210150;23;20464;-89
2022/08/07 01:19:30;;;;;;;12.80;7.10;;;;;;;;;;6184343;23;20323;-90
2022/08/07 01:21:56;;;;;;;14.07;7.72;;;;;;;;;;6181578;23;20345;-90
2022/08/07 01:24:23;;;;;;;14.10;7.47;;;;;;;;;;6183214;22;20012;-89
2022/08/07 01:26:50;;;;;;;12.25;7.07;;;;;;;;;;6180735;23;20084;-90
2022/08/07 01:29:16;;;;;;;15.77;7.45;;;;;;;;;;6207123;23;20396;-89
2022/08/07 01:31:42;;;;;;;15.63;8.45;;;;;;;;;;6179834;23;20063;-90
2022/08/07 01:34:09;;;;;;;12.15;6.80;;;;;;;;;;6177594;23;20538;-90
2022/08/07 01:36:35;;;;;;;17.25;7.57;;;;;;;;;;6180305;23;20380;-90
2022/08/07 01:39:01;;;;;;;12.85;7.90;;;;;;;;;;6205878;23;20036;-89
2022/08/07 01:41:27;;;;;;;12.65;7.05;;;;;;;;;;6179720;23;20021;-90
2022/08/07 01:43:53;;;;;;;12.93;7.38;;;;;;;;;;6181250;23;20004;-89
2022/08/07 01:46:20;;;;;;;14.55;8.20;;;;;;;;;;6176748;23;20001;-89
2022/08/07 01:48:46;;;;;;;18.42;6.88;;;;;;;;;;6178669;23;20039;-89
2022/08/07 01:51:16;;;;;;;14.10;7.45;;;;;;;;;;6179794;23;20088;-90
2022/08/07 01:53:45;;;;;;;13.02;6.63;;;;;;;;;;6179539;23;20139;-90
2022/08/07 01:56:16;;;;;;;16.40;7.65;;;;;;;;;;6179836;23;20000;-90
2022/08/07 01:58:47;;;;;;;11.05;6.10;;;;;;;;;;6179884;23;20009;-89
2022/08/07 02:01:21;;;;;;;14.85;6.43;;;;;;;;;;6181035;23;20012;-90
2022/08/07 02:03:51;;;;;;;9.57;5.93;;;;;;;;;;6180290;23;20063;-89
2022/08/07 02:06:19;;;;;;;13.20;6.90;;;;;;;;;;6179720;23;20055;-89
2022/08/07 02:08:45;;;;;;;10.63;5.97;;;;;;;;;;6180580;23;20009;-89
2022/08/07 02:11:11;;;;;;;11.13;5.70;;;;;;;;;;6178758;23;20001;-90
2022/08/07 02:13:39;;;;;;;11.18;5.82;;;;;;;;;;6178972;23;20417;-89
2022/08/07 02:16:07;;;;;;;35.08;10.05;;;;;;;;;;6180471;23;20388;-89
2022/08/07 02:18:35;;;;;;;12.48;6.30;;;;;;;;;;6208460;23;19997;-90
2022/08/07 02:21:03;;;;;;;12.75;6.60;;;;;;;;;;6179707;23;20330;-90
2022/08/07 02:23:30;;;;;;;11.82;6.70;;;;;;;;;;6181717;23;20008;-90
2022/08/07 02:25:57;;;;;;;10.75;6.35;;;;;;;;;;6233758;22;20043;-89
2022/08/07 02:28:25;;;;;;;17.88;7.15;;;;;;;;;;6208590;23;20015;-89
2022/08/07 02:30:51;;;;;;;14.90;7.28;;;;;;;;;;6208824;23;20336;-90
2022/08/07 02:33:18;;;;;;;12.68;6.63;;;;;;;;;;6236402;23;20000;-89
2022/08/07 02:35:45;;;;;;;11.05;6.40;;;;;;;;;;6235782;23;20011;-89
2022/08/07 02:38:14;;;;;;;17.23;7.57;;;;;;;;;;6209387;23;20062;-90
2022/08/07 02:40:42;;;;;;;11.60;6.22;;;;;;;;;;6207347;23;20012;-90
2022/08/07 02:43:09;;;;;;;13.82;6.60;;;;;;;;;;6209283;23;20098;-89
2022/08/07 02:45:37;;;;;;;13.13;6.22;;;;;;;;;;6209391;23;20008;-90
2022/08/07 02:48:04;;;;;;;9.32;5.03;;;;;;;;;;6208160;23;20493;-90
2022/08/07 02:50:31;;;;;;;11.70;5.85;;;;;;;;;;6208230;23;20008;-90
2022/08/07 02:53:02;;;;;;;9.75;5.75;;;;;;;;;;6208042;23;20008;-89
2022/08/07 02:55:30;;;;;;;13.40;6.10;;;;;;;;;;6235885;23;20027;-90
2022/08/07 02:57:57;;;;;;;11.15;5.38;;;;;;;;;;6208186;23;20004;-89
2022/08/07 03:00:24;;;;;;;10.23;5.60;;;;;;;;;;6234814;23;20015;-90
2022/08/07 03:02:51;;;;;;;13.27;5.55;;;;;;;;;;6207020;23;20095;-89
2022/08/07 03:05:18;;;;;;;15.35;5.80;;;;;;;;;;6208599;23;20451;-90
2022/08/07 03:07:46;;;;;;;16.35;5.68;;;;;;;;;;6208143;23;20314;-89
2022/08/07 03:10:12;;;;;;;13.02;5.57;;;;;;;;;;6208930;23;20050;-90
2022/08/07 03:12:39;;;;;;;11.70;5.50;;;;;;;;;;6233807;23;20053;-90
2022/08/07 03:15:05;;;;;;;11.18;5.47;;;;;;;;;;6234906;23;20463;-90
2022/08/07 03:17:32;;;;;;;11.13;5.18;;;;;;;;;;6207548;23;20004;-89
2022/08/07 03:19:58;;;;;;;14.32;6.13;;;;;;;;;;6208627;23;20019;-90
2022/08/07 03:22:24;;;;;;;9.80;5.47;;;;;;;;;;6209127;23;20004;-89
2022/08/07 03:24:58;;;;;;;9.75;5.75;;;;;;;;;;5856159;22;8057057;-89
2022/08/07 03:27:32;;;;;;;9.70;5.32;;;;;;;;;;6178426;23;20052;-90
2022/08/07 03:29:59;;;;;;;9.70;5.55;;;;;;;;;;6179411;23;20015;-90
2022/08/07 03:32:28;;;;;;;8.98;4.80;;;;;;;;;;6178025;23;20472;-89
2022/08/07 03:34:56;;;;;;;13.50;6.13;;;;;;;;;;6179633;23;20063;-90
2022/08/07 03:37:23;;;;;;;10.18;5.60;;;;;;;;;;6179906;23;20009;-89
2022/08/07 03:39:49;;;;;;;10.82;5.70;;;;;;;;;;6178810;23;20016;-89
2022/08/07 03:42:17;;;;;;;12.40;5.38;;;;;;;;;;6179306;23;20017;-89
2022/08/07 03:44:43;;;;;;;10.35;5.60;;;;;;;;;;6178851;23;20008;-90
2022/08/07 03:47:10;;;;;;;11.52;5.60;;;;;;;;;;6179239;23;20009;-89
2022/08/07 03:49:36;;;;;;;11.00;5.38;;;;;;;;;;6205802;23;20001;-90
2022/08/07 03:52:03;;;;;;;9.48;5.45;;;;;;;;;;6178233;23;20115;-89
2022/08/07 03:54:29;;;;;;;9.98;5.45;;;;;;;;;;6178509;23;20036;-89
2022/08/07 03:56:55;;;;;;;9.55;5.60;;;;;;;;;;6178158;23;20016;-89
2022/08/07 03:59:22;;;;;;;8.15;5.38;;;;;;;;;;6177937;23;20310;-90
2022/08/07 04:01:48;;;;;;;9.90;5.80;;;;;;;;;;6179248;23;20009;-90
2022/08/07 04:04:17;;;;;;;12.02;5.38;;;;;;;;;;6179504;23;20614;-89
2022/08/07 04:06:44;;;;;;;8.35;5.10;;;;;;;;;;6205935;23;20000;-89
2022/08/07 04:09:11;;;;;;;12.05;5.65;;;;;;;;;;6178801;23;20252;-89
2022/08/07 04:11:37;;;;;;;10.52;5.45;;;;;;;;;;6179185;23;20005;-90
2022/08/07 04:14:03;;;;;;;7.70;5.00;;;;;;;;;;6204567;23;20384;-89
2022/08/07 04:16:30;;;;;;;9.65;4.85;;;;;;;;;;6180232;23;20011;-89
2022/08/07 04:18:57;;;;;;;12.52;5.38;;;;;;;;;;6178909;23;20012;-89
2022/08/07 04:21:23;;;;;;;9.75;5.53;;;;;;;;;;6179816;23;20063;-90
2022/08/07 04:23:49;;;;;;;10.25;4.80;;;;;;;;;;6178731;23;20008;-90
2022/08/07 04:26:15;;;;;;;11.55;5.57;;;;;;;;;;6208574;22;20478;-90
2022/08/07 04:28:41;;;;;;;11.15;4.85;;;;;;;;;;6235635;23;20358;-90
2022/08/07 04:31:11;;;;;;;11.32;5.00;;;;;;;;;;6208336;23;20451;-90
2022/08/07 04:33:37;;;;;;;9.30;5.53;;;;;;;;;;6209087;23;20004;-89
2022/08/07 04:36:04;;;;;;;11.02;5.55;;;;;;;;;;6208819;23;20000;-90
2022/08/07 04:38:30;;;;;;;12.07;5.70;;;;;;;;;;6209055;23;20110;-89
2022/08/07 04:40:56;;;;;;;9.98;5.18;;;;;;;;;;6207501;23;20082;-89
2022/08/07 04:43:28;;;;;;;15.98;5.50;;;;;;;;;;6208544;23;20036;-90
2022/08/07 04:46:06;;;;;;;11.90;5.40;;;;;;;;;;6207611;23;20015;-90
2022/08/07 04:48:33;;;;;;;11.15;5.93;;;;;;;;;;6210134;23;20076;-89
2022/08/07 04:51:04;;;;;;;16.63;6.07;;;;;;;;;;6208534;23;20017;-90
2022/08/07 04:53:43;;;;;;;8.40;5.20;;;;;;;;;;6209813;23;20008;-89
2022/08/07 04:56:30;;;;;;;12.32;5.80;;;;;;;;;;6206635;23;20429;-90
2022/08/07 04:58:56;;;;;;;;;;;;;;;;;;6207429;23;20376;-90
2022/08/07 05:01:34;;;;;;;12.25;5.50;;;;;;;;;;6209339;23;19913;-89
2022/08/07 05:04:11;;;;;;;9.43;5.60;;;;;;;;;;6207503;23;20351;-89
2022/08/07 05:06:44;;;;;;;7.75;5.22;;;;;;;;;;6209074;23;20001;-89
2022/08/07 05:09:18;;;;;;;8.52;5.20;;;;;;;;;;6208426;23;20008;-90
2022/08/07 05:11:46;;;;;;;7.88;4.68;;;;;;;;;;6209048;23;20546;-89
2022/08/07 05:14:15;;;;;;;8.43;5.25;;;;;;;;;;6209994;23;20059;-89
2022/08/07 05:16:46;;;;;;;10.23;4.18;;;;;;;;;;6209371;23;20451;-90
2022/08/07 05:19:14;;;;;;;8.55;4.88;;;;;;;;;;6211494;23;20004;-91
2022/08/07 05:21:44;;;;;;;7.50;4.30;;;;;;;;;;6209483;23;20008;-89
2022/08/07 05:24:11;;;;;;;7.35;4.40;;;;;;;;;;6236393;22;20032;-89
2022/08/07 05:26:38;;;;;;;7.60;4.57;;;;;;;;;;6238220;23;20016;-89
2022/08/07 05:29:06;;;;;;;8.80;3.67;;;;;;;;;;6215633;23;20004;-89
2022/08/07 05:31:34;;;;;;;6.22;3.78;;;;;;;;;;6214430;23;20095;-89
2022/08/07 05:34:01;;;;;;;8.90;4.07;;;;;;;;;;6213721;23;20433;-89
2022/08/07 05:36:28;;;;;;;7.57;3.70;;;;;;;;;;6213366;23;20012;-89
2022/08/07 05:38:55;;;;;;;5.95;3.58;;;;;;;;;;6213026;23;20348;-89
2022/08/07 05:41:21;;;;;;;4.85;3.30;;;;;;;;;;6211091;23;20004;-89
2022/08/07 05:43:51;;;;;;;9.45;4.32;;;;;;;;;;6214137;23;20015;-89
2022/08/07 05:46:19;;;;;;;6.95;3.92;;;;;;;;;;6212693;23;20012;-89
2022/08/07 05:48:45;;;;;;;8.82;3.25;;;;;;;;;;6212244;23;20454;-89
2022/08/07 05:51:12;;;;;;;6.90;3.60;;;;;;;;;;6237990;23;20079;-90
2022/08/07 05:53:38;;;;;;;5.97;4.03;;;;;;;;;;6211378;23;20488;-90
2022/08/07 05:56:05;;;;;;;9.80;3.67;;;;;;;;;;6209845;23;20014;-91
2022/08/07 05:58:31;;;;;;;6.00;3.75;;;;;;;;;;6210891;23;20011;-89
2022/08/07 06:00:59;;;;;;;7.55;3.58;;;;;;;;;;6208898;23;20023;-91
2022/08/07 06:03:26;;;;;;;5.63;3.30;;;;;;;;;;6239204;23;20032;-89
2022/08/07 06:05:53;;;;;;;8.93;3.38;;;;;;;;;;6207412;23;20000;-89
2022/08/07 06:08:19;;;;;;;4.60;3.25;;;;;;;;;;6210110;23;20050;-90
2022/08/07 06:10:45;;;;;;;5.65;3.42;;;;;;;;;;6209782;23;20451;-90
2022/08/07 06:13:12;;;;;;;4.80;2.90;;;;;;;;;;6210439;23;20336;-90
2022/08/07 06:15:39;;;;;;;5.90;2.72;;;;;;;;;;6209896;23;20008;-90
2022/08/07 06:18:06;;;;;;;4.10;3.22;;;;;;;;;;6209817;23;20102;-90
2022/08/07 06:20:35;;;;;;;4.53;3.08;;;;;;;;;;6210296;23;20003;-90
2022/08/07 06:23:02;;;;;;;5.65;2.92;;;;;;;;;;6237397;23;20091;-90
2022/08/07 06:25:34;;;;;;;5.13;3.22;;;;;;;;;;6201820;22;20017;-90
2022/08/07 06:28:01;;;;;;;4.35;2.90;;;;;;;;;;6207018;23;20055;-91
2022/08/07 06:30:27;;;;;;;7.18;3.05;;;;;;;;;;6205639;23;20004;-90
2022/08/07 06:32:53;;;;;;;7.95;3.88;;;;;;;;;;6180076;23;20012;-90
2022/08/07 06:35:19;;;;;;;7.57;3.45;;;;;;;;;;6179412;23;20008;-90
2022/08/07 06:37:45;;;;;;;5.22;3.58;;;;;;;;;;6179296;23;20051;-90
2022/08/07 06:40:12;;;;;;;4.70;2.92;;;;;;;;;;6178765;23;20005;-90
2022/08/07 06:42:39;;;;;;;4.00;2.80;;;;;;;;;;6178909;23;20012;-90
2022/08/07 06:45:08;;;;;;;5.60;3.20;;;;;;;;;;6180803;23;20268;-90
2022/08/07 06:47:34;;;;;;;4.97;2.65;;;;;;;;;;6179732;23;20009;-91
2022/08/07 06:50:01;;;;;;;6.25;3.22;;;;;;;;;;6180654;23;20091;-90
2022/08/07 06:52:32;;;;;;;5.55;2.80;;;;;;;;;;6178949;23;20012;-90
2022/08/07 06:54:59;;;;;;;5.47;2.50;;;;;;;;;;6180451;23;20135;-90
2022/08/07 06:57:26;;;;;;;4.70;2.38;;;;;;;;;;6205638;23;20471;-90
2022/08/07 06:59:54;;;;;;;3.67;2.25;;;;;;;;;;6180793;23;20008;-89
2022/08/07 07:02:22;;;;;;;6.93;2.70;;;;;;;;;;6179659;23;20012;-90
2022/08/07 07:04:48;;;;;;;4.30;3.33;;;;;;;;;;6180602;23;20591;-91
2022/08/07 07:07:15;;;;;;;12.63;6.95;;;;;;;;;;6178790;23;20087;-90
2022/08/07 07:09:46;;;;;;;10.70;3.20;;;;;;;;;;6180447;23;20533;-91
2022/08/07 07:12:31;;;;;;;3.17;2.47;;;;;;;;;;6205917;23;20651;-89
2022/08/07 07:15:16;;;;;;;3.92;2.10;;;;;;;;;;6180006;23;20564;-90
2022/08/07 07:17:47;;;;;;;3.22;2.08;;;;;;;;;;6179551;23;20132;-91
2022/08/07 07:20:18;;;;;;;4.38;2.30;;;;;;;;;;6207801;23;20008;-90
2022/08/07 07:22:45;;;;;;;3.45;2.17;;;;;;;;;;6207051;23;20088;-90
2022/08/07 07:25:12;;;;;;;3.30;2.13;;;;;;;;;;6212939;22;20451;-90
2022/08/07 07:27:40;;;;;;;5.05;2.20;;;;;;;;;;6209882;23;20000;-90
2022/08/07 07:30:06;;;;;;;7.20;3.92;;;;;;;;;;6210665;23;20249;-91
2022/08/07 07:32:34;;;;;;;3.80;2.42;;;;;;;;;;6209353;23;20015;-90
2022/08/07 07:35:02;;;;;;;4.50;2.38;;;;;;;;;;6210884;23;20318;-91
2022/08/07 07:37:29;;;;;;;5.57;2.63;;;;;;;;;;6209886;23;20012;-96
2022/08/07 07:39:57;;;;;;;3.38;2.85;;;;;;;;;;6210428;23;20373;-95
2022/08/07 07:42:24;;;;;;;4.63;2.90;;;;;;;;;;6210093;23;20030;-96
2022/08/07 07:44:52;;;;;;;4.50;2.63;;;;;;;;;;6210933;23;20010;-95
2022/08/07 07:47:19;;;;;;;3.05;2.67;;;;;;;;;;6210401;23;20494;-96
2022/08/07 07:49:45;;;;;;;5.20;3.53;;;;;;;;;;6210386;23;20000;-96
2022/08/07 07:52:12;;;;;;;4.95;3.13;;;;;;;;;;6211711;23;20012;-95
2022/08/07 07:54:39;;;;;;;5.35;3.30;;;;;;;;;;6208917;23;20012;-93
2022/08/07 07:57:05;;;;;;;3.35;2.92;;;;;;;;;;6210063;23;20008;-96
2022/08/07 07:59:33;;;;;;;7.45;3.38;;;;;;;;;;6211159;23;20004;-96
2022/08/07 08:02:00;;;;;;;6.72;3.42;;;;;;;;;;6210279;23;20008;-94
2022/08/07 08:04:27;;;;;;;4.15;3.35;;;;;;;;;;6209332;23;20067;-96
2022/08/07 08:06:54;;;;;;;7.32;3.47;;;;;;;;;;6210695;23;20432;-96
2022/08/07 08:09:22;;;;;;;5.82;3.55;;;;;;;;;;6210487;23;20014;-96
2022/08/07 08:11:49;;;;;;;3.67;3.10;;;;;;;;;;6211125;23;20012;-96
2022/08/07 08:14:15;;;;;;;6.70;4.60;;;;;;;;;;6209821;23;20552;-96
2022/08/07 08:16:43;;;;;;;6.70;3.40;;;;;;;;;;6209837;23;20004;-96
2022/08/07 08:19:12;;;;;;;7.50;3.38;;;;;;;;;;6209680;23;20008;-96
2022/08/07 08:27:13;;;;;;;4.10;2.97;;;;;;;;;;6237742;22;19965;-96
2022/08/07 08:29:45;;;;;;;4.07;3.35;;;;;;;;;;6211485;23;20420;-96
2022/08/07 08:32:12;;;;;;;3.67;3.00;;;;;;;;;;6208771;23;20197;-95
2022/08/07 08:34:40;;;;;;;5.57;3.28;;;;;;;;;;6208092;23;20098;-95
2022/08/07 08:37:07;;;;;;;3.40;2.85;;;;;;;;;;6209034;23;20016;-96
2022/08/07 08:39:34;;;;;;;3.95;3.00;;;;;;;;;;6208327;23;20649;-93
2022/08/07 08:42:04;;;;;;;5.57;3.30;;;;;;;;;;6208360;23;20035;-96
2022/08/07 08:44:36;;;;;;;4.68;3.10;;;;;;;;;;6209142;23;20012;-95
2022/08/07 08:47:08;;;;;;;3.63;2.80;;;;;;;;;;6236316;23;20000;-91
2022/08/07 08:49:46;;;;;;;4.47;2.83;;;;;;;;;;6208535;23;20337;-95
2022/08/07 08:52:18;;;;;;;4.25;2.88;;;;;;;;;;6210681;23;20022;-92
2022/08/07 08:54:51;;;;;;;9.15;3.55;;;;;;;;;;6208144;23;20122;-96
2022/08/07 08:57:37;;;;;;;6.97;3.10;;;;;;;;;;6235134;23;20015;-92
2022/08/07 09:00:06;;;;;;;5.47;2.67;;;;;;;;;;6184375;23;20095;-95
2022/08/07 09:02:41;;;;;;;4.07;2.78;;;;;;;;;;6210537;23;20145;-94
2022/08/07 09:05:07;;;;;;;6.30;2.80;;;;;;;;;;6211984;23;20046;-95
2022/08/07 09:07:39;;;;;;;9.80;3.58;;;;;;;;;;6239524;23;20412;-94
2022/08/07 09:10:24;;;;;;;3.78;2.63;;;;;;;;;;6212659;23;20071;-94
2022/08/07 09:13:05;;;;;;;6.55;3.10;;;;;;;;;;6210646;23;20015;-95
2022/08/07 09:15:31;;;;;;;3.80;3.20;;;;;;;;;;6211566;23;20516;-93
2022/08/07 09:18:21;;;;;;;5.20;2.65;;;;;;;;;;6212845;23;20004;-90
2022/08/07 09:20:50;;;;;;;5.25;3.38;;;;;;;;;;6143506;23;20432;-94
2022/08/07 09:23:29;;;;;;;4.32;2.67;;;;;;;;;;6212548;23;20012;-95
2022/08/07 09:26:02;;;;;;;9.23;2.53;;;;;;;;;;6201844;22;20024;-91
2022/08/07 09:28:31;;;;;;;3.33;2.75;;;;;;;;;;6183082;23;20420;-94
2022/08/07 09:31:07;;;;;;;4.50;3.15;;;;;;;;;;6181364;23;20013;-93
2022/08/07 09:33:52;;;;;;;3.67;2.53;;;;;;;;;;6181960;23;20016;-95
2022/08/07 09:36:22;;;;;;;5.55;2.58;;;;;;;;;;6181307;23;20467;-91
2022/08/07 09:38:57;;;;;;;2.53;2.33;;;;;;;;;;6185700;23;20008;-95
2022/08/07 09:41:29;;;;;;;4.60;2.20;;;;;;;;;;6181992;23;20009;-93
2022/08/07 09:44:01;;;;;;;3.88;2.55;;;;;;;;;;6184267;23;20009;-94
2022/08/07 09:46:45;;;;;;;3.60;2.78;;;;;;;;;;6186502;23;20004;-94
2022/08/07 09:49:30;;;;;;;5.28;2.50;;;;;;;;;;6218152;23;20313;-94
2022/08/07 09:52:02;;;;;;;8.75;3.00;;;;;;;;;;6191238;23;20009;-92
2022/08/07 09:54:48;;;;;;;4.25;3.17;;;;;;;;;;6193797;23;20016;-94
2022/08/07 09:57:14;;;;;;;3.95;2.15;;;;;;;;;;6202282;23;20004;-90
2022/08/07 09:59:49;;;;;;;3.20;2.03;;;;;;;;;;6203095;23;20092;-94
2022/08/07 10:02:37;;;;;;;2.50;2.30;;;;;;;;;;6208719;23;20074;-91
2022/08/07 10:05:22;;;;;;;7.80;3.65;;;;;;;;;;6210984;23;20020;-90
2022/08/07 10:07:54;;;;;;;3.88;2.60;;;;;;;;;;6239008;23;19993;-89
2022/08/07 10:10:32;;;;;;;3.67;2.17;;;;;;;;;;6208455;23;20004;-91
2022/08/07 10:13:11;;;;;;;2.17;1.92;;;;;;;;;;6210335;23;19992;-90
2022/08/07 10:15:37;;;;;;;4.07;2.25;;;;;;;;;;6198910;23;20008;-89
2022/08/07 10:18:22;;;;;;;3.88;2.25;;;;;;;;;;6218625;23;20028;-95
2022/08/07 10:21:00;;;;;;;2.43;2.23;;;;;;;;;;6191751;23;20005;-95
2022/08/07 10:23:46;;;;;;;4.25;2.58;;;;;;;;;;6187616;23;20016;-91
2022/08/07 10:26:28;;;;;;;3.72;2.60;;;;;;;;;;6225451;22;20086;-94
2022/08/07 10:28:57;;;;;;;2.67;2.28;;;;;;;;;;6215155;23;20000;-96
2022/08/07 10:31:29;;;;;;;3.28;2.55;;;;;;;;;;6212900;23;20337;-94
2022/08/07 10:34:01;;;;;;;5.78;2.78;;;;;;;;;;6239913;23;20607;-94
2022/08/07 10:36:38;;;;;;;3.88;2.20;;;;;;;;;;6240120;23;20332;-93
2022/08/07 10:39:07;;;;;;;5.95;2.60;;;;;;;;;;6213063;23;20083;-93
2022/08/07 10:41:34;;;;;;;2.85;2.38;;;;;;;;;;6213395;23;20027;-95
2022/08/07 10:44:07;;;;;;;5.40;2.85;;;;;;;;;;6214420;23;20012;-90
2022/08/07 10:46:48;;;;;;;4.15;2.05;;;;;;;;;;6213805;23;20010;-93
2022/08/07 10:49:22;;;;;;;6.72;2.35;;;;;;;;;;6213440;23;20008;-95
2022/08/07 10:51:48;;;;;;;2.60;2.30;;;;;;;;;;6213544;23;20012;-94
2022/08/07 10:54:40;;;;;;;2.88;1.95;;;;;;;;;;6212462;23;20008;-95
2022/08/07 10:57:33;;;;;;;2.75;2.30;;;;;;;;;;6204845;23;20499;-92
2022/08/07 11:00:04;;;;;;;4.63;2.22;;;;;;;;;;6214196;23;20005;-93
2022/08/07 11:02:33;;;;;;;2.30;1.75;;;;;;;;;;6212147;23;20016;-94
2022/08/07 11:05:13;;;;;;;4.38;2.80;;;;;;;;;;6213416;23;20004;-95
2022/08/07 11:07:40;;;;;;;3.72;1.88;;;;;;;;;;6213794;23;20321;-93
2022/08/07 11:10:11;;;;;;;3.35;2.03;;;;;;;;;;6214064;23;20012;-92
2022/08/07 11:12:44;;;;;;;2.03;1.80;;;;;;;;;;6211974;23;20066;-93
2022/08/07 11:15:13;;;;;;;2.95;2.00;;;;;;;;;;6239659;23;20039;-94
2022/08/07 11:17:42;;;;;;;4.47;2.08;;;;;;;;;;6212374;23;20012;-94
2022/08/07 11:20:30;;;;;;;4.57;2.03;;;;;;;;;;6212369;23;20065;-96
2022/08/07 11:22:59;;;;;;;2.92;2.72;;;;;;;;;;6240609;23;20008;-95
2022/08/07 11:25:30;;;;;;;4.57;1.83;;;;;;;;;;6212072;22;20011;-94
2022/08/07 11:28:14;;;;;;;3.83;2.13;;;;;;;;;;6212948;23;20047;-93
2022/08/07 11:30:43;;;;;;;5.93;2.05;;;;;;;;;;6213307;23;20068;-93
2022/08/07 11:33:23;;;;;;;3.55;1.80;;;;;;;;;;6211686;23;20019;-95
2022/08/07 11:35:52;;;;;;;4.78;2.00;;;;;;;;;;6212926;23;20042;-93
2022/08/07 11:38:36;;;;;;;3.47;1.80;;;;;;;;;;6212643;23;20003;-92
2022/08/07 11:41:08;;;;;;;2.85;1.90;;;;;;;;;;6235011;23;20436;-91
2022/08/07 11:43:42;;;;;;;3.97;1.83;;;;;;;;;;6210192;23;20319;-96
2022/08/07 11:46:14;;;;;;;2.13;1.65;;;;;;;;;;6209174;23;20004;-95
2022/08/07 11:48:51;;;;;;;1.73;1.63;;;;;;;;;;6211427;23;20007;-93
2022/08/07 11:51:36;;;;;;;2.22;2.00;;;;;;;;;;6210232;23;20138;-93
2022/08/07 11:54:06;;;;;;;4.17;2.40;;;;;;;;;;6210067;23;20103;-93
2022/08/07 11:56:35;;;;;;;2.75;2.05;;;;;;;;;;6210345;23;20235;-95
2022/08/07 11:59:26;;;;;;;4.10;2.28;;;;;;;;;;6209955;23;20012;-95
2022/08/07 12:01:57;;;;;;;1.70;1.58;;;;;;;;;;6209048;23;20391;-94
2022/08/07 12:04:42;;;;;;;3.05;2.08;;;;;;;;;;6236236;23;20054;-94
2022/08/07 12:07:12;;;;;;;4.60;2.55;;;;;;;;;;6208654;23;20153;-96
2022/08/07 12:09:45;;;;;;;6.35;2.42;;;;;;;;;;6211556;23;20023;-92
2022/08/07 12:12:13;;;;;;;1.95;1.85;;;;;;;;;;6210454;23;20008;-95
2022/08/07 12:14:46;;;;;;;2.30;2.05;;;;;;;;;;6212044;23;20379;-95
2022/08/07 12:17:15;;;;;;;2.70;1.83;;;;;;;;;;6211322;23;20332;-95
2022/08/07 12:19:45;;;;;;;2.42;1.92;;;;;;;;;;6213979;23;20012;-95
2022/08/07 12:22:19;;;;;;;3.20;2.13;;;;;;;;;;6212362;23;20016;-93
2022/08/07 12:27:54;;;;;;;3.08;2.50;;;;;;;;;;6236855;22;20023;-94
2022/08/07 12:30:23;;;;;;;3.08;2.10;;;;;;;;;;6213215;23;20015;-96
2022/08/07 12:33:04;;;;;;;3.20;2.20;;;;;;;;;;6209532;23;20015;-92
2022/08/07 12:35:31;;;;;;;3.15;2.13;;;;;;;;;;6210312;23;20352;-95
2022/08/07 12:37:59;;;;;;;2.22;2.00;;;;;;;;;;6239360;23;20424;-93
2022/08/07 12:40:27;;;;;;;2.42;1.95;;;;;;;;;;6210379;23;20491;-96
2022/08/07 12:42:54;;;;;;;2.88;1.88;;;;;;;;;;6212970;23;20069;-94
2022/08/07 12:45:26;;;;;;;4.63;2.67;;;;;;;;;;6213398;23;20101;-94
2022/08/07 12:47:58;;;;;;;5.70;2.90;;;;;;;;;;6212132;23;20008;-94
2022/08/07 12:50:41;;;;;;;4.03;2.30;;;;;;;;;;6240042;23;20090;-94
2022/08/07 12:53:27;;;;;;;4.18;2.40;;;;;;;;;;6211382;23;20032;-94
2022/08/07 12:56:12;;;;;;;4.82;2.75;;;;;;;;;;6184881;23;20019;-94
2022/08/07 12:58:41;;;;;;;8.93;2.67;;;;;;;;;;6239037;23;20008;-93
2022/08/07 13:01:16;;;;;;;3.78;2.25;;;;;;;;;;6210707;23;20016;-95
2022/08/07 13:03:52;;;;;;;5.00;2.67;;;;;;;;;;6210971;23;20114;-93
2022/08/07 13:06:18;;;;;;;;;;;;;;;;;;6210649;23;20070;-94
2022/08/07 13:08:43;;;;;;;;;;;;;;;;;;6211599;23;19911;-94
2022/08/07 13:11:25;;;;;;;3.97;2.63;;;;;;;;;;6209751;23;19904;-94
2022/08/07 13:14:15;;;;;;;4.32;2.30;;;;;;;;;;6209871;23;20007;-93
2022/08/07 13:16:44;;;;;;;5.00;2.67;;;;;;;;;;6210848;23;20007;-93
2022/08/07 13:19:29;;;;;;;4.70;2.40;;;;;;;;;;6211574;23;20099;-94
2022/08/07 13:22:01;;;;;;;4.03;2.45;;;;;;;;;;6213336;23;20015;-93
2022/08/07 13:24:34;;;;;;;2.88;2.30;;;;;;;;;;6211720;23;20421;-94
2022/08/07 13:27:07;;;;;;;3.55;2.20;;;;;;;;;;6194728;22;20013;-94
2022/08/07 13:29:38;;;;;;;3.83;2.30;;;;;;;;;;6181023;23;20087;-94
2022/08/07 13:32:09;;;;;;;6.05;2.35;;;;;;;;;;6180882;23;20009;-94
2022/08/07 13:34:48;;;;;;;8.23;2.40;;;;;;;;;;6180885;23;20015;-95
2022/08/07 13:37:33;;;;;;;4.88;2.03;;;;;;;;;;6180408;23;20015;-94
2022/08/07 13:40:18;;;;;;;2.77;2.33;;;;;;;;;;6179417;23;20090;-93
2022/08/07 13:42:45;;;;;;;4.97;2.00;;;;;;;;;;6179223;23;20013;-93
2022/08/07 13:45:12;;;;;;;4.78;2.08;;;;;;;;;;6180081;23;20004;-93
2022/08/07 13:47:39;;;;;;;5.88;2.63;;;;;;;;;;6179866;23;20016;-93
2022/08/07 13:50:07;;;;;;;4.03;2.20;;;;;;;;;;6181006;23;20001;-93
2022/08/07 13:52:36;;;;;;;5.65;2.72;;;;;;;;;;6207425;23;20047;-93
2022/08/07 13:55:11;;;;;;;5.10;2.05;;;;;;;;;;6180985;23;20499;-94
2022/08/07 13:57:39;;;;;;;6.60;2.55;;;;;;;;;;6181572;23;20009;-93
2022/08/07 14:00:07;;;;;;;3.70;2.03;;;;;;;;;;6181389;23;20429;-92
2022/08/07 14:02:34;;;;;;;2.90;2.10;;;;;;;;;;6181665;23;20016;-93
2022/08/07 14:05:03;;;;;;;3.95;2.28;;;;;;;;;;6183262;23;20008;-92
2022/08/07 14:07:33;;;;;;;5.22;2.25;;;;;;;;;;6182995;23;20016;-91
2022/08/07 14:10:01;;;;;;;5.28;2.85;;;;;;;;;;6212258;23;20032;-93
2022/08/07 14:12:30;;;;;;;3.78;2.20;;;;;;;;;;6186448;23;20012;-91
2022/08/07 14:15:01;;;;;;;6.93;2.13;;;;;;;;;;6192232;23;20031;-93
2022/08/07 14:17:27;;;;;;;4.38;2.05;;;;;;;;;;6192434;23;20012;-93
2022/08/07 14:19:59;;;;;;;8.40;2.53;;;;;;;;;;6198310;23;20012;-92
2022/08/07 14:22:27;;;;;;;5.82;2.20;;;;;;;;;;6208561;23;20011;-92
2022/08/07 14:25:02;;;;;;;5.18;1.85;;;;;;;;;;6208184;23;20027;-91
2022/08/07 14:27:39;;;;;;;4.15;2.00;;;;;;;;;;6213579;22;20068;-92
2022/08/07 14:30:10;;;;;;;6.55;2.08;;;;;;;;;;6212488;23;19997;-91
2022/08/07 14:32:44;;;;;;;4.35;1.80;;;;;;;;;;6212623;23;20064;-92
2022/08/07 14:35:15;;;;;;;5.03;1.63;;;;;;;;;;6195407;23;20417;-92
2022/08/07 14:37:43;;;;;;;2.25;1.90;;;;;;;;;;6189229;23;20433;-93
2022/08/07 14:40:13;;;;;;;8.57;2.13;;;;;;;;;;6207929;23;20393;-93
2022/08/07 14:42:39;;;;;;;3.97;2.20;;;;;;;;;;6208488;23;20497;-93
2022/08/07 14:45:06;;;;;;;5.13;1.88;;;;;;;;;;6181467;23;20012;-92
2022/08/07 14:47:33;;;;;;;6.82;2.70;;;;;;;;;;6180312;23;20011;-93
2022/08/07 14:50:00;;;;;;;4.22;1.63;;;;;;;;;;6180929;23;20067;-94
2022/08/07 14:52:32;;;;;;;4.43;2.67;;;;;;;;;;6180954;23;20436;-94
2022/08/07 14:54:59;;;;;;;4.93;2.08;;;;;;;;;;6180533;23;20015;-94
2022/08/07 14:57:25;;;;;;;3.38;2.13;;;;;;;;;;6180660;23;20047;-92
2022/08/07 14:59:52;;;;;;;3.78;2.30;;;;;;;;;;6180906;23;20318;-94
2022/08/07 15:02:20;;;;;;;3.28;2.20;;;;;;;;;;6179863;23;20097;-93
2022/08/07 15:04:47;;;;;;;7.97;2.20;;;;;;;;;;6181765;23;20353;-92
2022/08/07 15:07:17;;;;;;;2.97;2.55;;;;;;;;;;6178600;23;20009;-91